Time;durP1;ratioP1;P1;durP2;ratioP2;P2;SDS_P1;SDS_P2;PMS_P1;PMS_P2;Temp;Humidity;BMP_temperature;BMP_pressure;BME280_temperature;BME280_humidity;BME280_pressure;Samples;Min_cycle;Max_cycle;Signal;HPM_P1;HPM_P2
2022/07/03 00:01:27;;;;;;;11.80;10.70;;;;;;;24.20;73.12;99472.36;1751147;81;20963;-67
2022/07/03 00:03:54;;;;;;;11.48;10.65;;;;;;;24.21;73.18;99474.02;1752346;81;20989;-67
2022/07/03 00:06:21;;;;;;;10.98;10.10;;;;;;;24.22;73.11;99467.52;1745240;81;20887;-67
2022/07/03 00:08:48;;;;;;;11.73;10.72;;;;;;;24.18;73.15;99461.77;1747027;82;21190;-67
2022/07/03 00:11:15;;;;;;;12.65;11.60;;;;;;;24.18;73.24;99460.41;1754485;81;21045;-67
2022/07/03 00:13:42;;;;;;;12.43;11.35;;;;;;;24.20;73.18;99469.65;1754829;80;20914;-67
2022/07/03 00:16:09;;;;;;;11.55;10.58;;;;;;;24.16;73.30;99467.18;1749744;81;20989;-66
2022/07/03 00:18:35;;;;;;;11.57;10.68;;;;;;;24.14;73.37;99462.02;1744974;80;21061;-67
2022/07/03 00:21:04;;;;;;;12.15;11.15;;;;;;;24.17;73.41;99458.76;1732241;80;22097;-67
2022/07/03 00:23:48;;;;;;;12.03;10.93;;;;;;;24.22;73.32;99462.08;1732058;82;21035;-67
2022/07/03 00:26:14;;;;;;;11.60;10.70;;;;;;;24.21;73.31;99465.33;1695990;83;21598;-67
2022/07/03 00:28:41;;;;;;;10.82;9.93;;;;;;;24.21;73.39;99469.41;1625317;84;20933;-67
2022/07/03 00:31:08;;;;;;;11.95;10.95;;;;;;;24.22;73.41;99458.00;1683928;84;21478;-68
2022/07/03 00:33:34;;;;;;;11.68;10.60;;;;;;;24.24;73.32;99459.38;1691994;84;21514;-66
2022/07/03 00:36:01;;;;;;;11.20;10.38;;;;;;;24.23;73.23;99460.45;1700139;83;20935;-66
2022/07/03 00:38:27;;;;;;;11.25;10.25;;;;;;;24.24;73.26;99458.02;1694086;84;20989;-66
2022/07/03 00:40:54;;;;;;;10.82;10.03;;;;;;;24.24;73.29;99458.02;1694185;84;20936;-67
2022/07/03 00:43:21;;;;;;;10.93;9.98;;;;;;;24.25;73.21;99463.72;1694251;84;20927;-67
2022/07/03 00:45:49;;;;;;;10.75;9.75;;;;;;;24.25;73.16;99461.53;1690962;84;21148;-67
2022/07/03 00:48:18;;;;;;;12.53;11.28;;;;;;;24.25;73.20;99462.36;1694006;84;20956;-68
2022/07/03 00:50:49;;;;;;;11.60;10.53;;;;;;;24.25;73.18;99458.28;1699927;83;21388;-67
2022/07/03 00:53:20;;;;;;;12.20;11.20;;;;;;;24.19;73.31;99451.72;1694945;83;20961;-66
2022/07/03 00:55:47;;;;;;;11.65;10.60;;;;;;;24.15;73.51;99451.41;1693606;84;20933;-68
2022/07/03 00:58:17;;;;;;;12.05;10.98;;;;;;;24.12;73.67;99456.00;1698888;83;21249;-67
2022/07/03 01:00:45;;;;;;;12.55;11.55;;;;;;;24.15;73.79;99455.48;1694179;83;20980;-67
2022/07/03 01:03:18;;;;;;;14.03;12.63;;;;;;;24.11;73.99;99454.91;1694064;84;21007;-67
2022/07/03 01:05:52;;;;;;;12.90;11.75;;;;;;;24.06;74.18;99448.87;1694088;84;21565;-67
2022/07/03 01:08:50;;;;;;;12.98;11.88;;;;;;;24.05;74.37;99454.01;1695866;83;21490;-67
2022/07/03 01:11:30;;;;;;;12.58;11.33;;;;;;;24.04;74.53;99446.92;1703066;83;21869;-67
2022/07/03 01:14:45;;;;;;;12.60;11.40;;;;;;;24.05;74.68;99451.30;1694171;84;20981;-66
2022/07/03 01:17:29;;;;;;;13.35;12.18;;;;;;;24.06;74.71;99448.87;1708355;83;20963;-66
2022/07/03 01:20:02;;;;;;;14.20;12.90;;;;;;;24.05;74.80;99447.22;1705160;83;20990;-67
2022/07/03 01:22:46;;;;;;;13.20;12.10;;;;;;;24.02;74.83;99446.37;1729700;82;20923;-65
2022/07/03 01:25:41;;;;;;;13.10;11.97;;;;;;;23.99;74.91;99448.23;1743333;82;21488;-67
2022/07/03 01:28:14;;;;;;;13.58;11.85;;;;;;;23.98;75.11;99441.98;1710309;82;20923;-67
2022/07/03 01:30:54;;;;;;;14.40;13.05;;;;;;;23.98;75.19;99439.00;1744455;82;20914;-67
2022/07/03 01:33:26;;;;;;;14.93;13.62;;;;;;;23.96;75.17;99441.95;1802732;79;20966;-67
2022/07/03 01:36:08;;;;;;;14.47;13.13;;;;;;;23.88;75.34;99435.09;1794301;79;21424;-66
2022/07/03 01:38:37;;;;;;;15.00;13.45;;;;;;;23.88;75.60;99432.95;1781228;80;21130;-66
2022/07/03 01:41:07;;;;;;;15.05;13.48;;;;;;;23.89;75.65;99434.56;1784571;79;20949;-67
2022/07/03 01:43:40;;;;;;;16.27;13.68;;;;;;;23.87;75.64;99435.37;1802811;79;21478;-67
2022/07/03 01:46:07;;;;;;;15.25;13.68;;;;;;;23.82;75.84;99438.03;1793594;79;20918;-67
2022/07/03 01:48:35;;;;;;;15.45;13.95;;;;;;;23.78;75.95;99437.72;1793593;79;21556;-67
2022/07/03 01:51:01;;;;;;;15.25;13.53;;;;;;;23.73;76.18;99433.59;1783578;79;22116;-67
2022/07/03 01:53:30;;;;;;;16.15;14.05;;;;;;;23.71;76.34;99428.97;1802576;79;20907;-67
2022/07/03 01:55:58;;;;;;;16.60;14.98;;;;;;;23.68;76.50;99430.83;1796290;79;21015;-67
2022/07/03 01:58:25;;;;;;;16.67;14.90;;;;;;;23.69;76.57;99424.87;1802788;79;21515;-67
2022/07/03 02:01:05;;;;;;;15.50;14.20;;;;;;;23.67;76.60;99423.75;1787918;79;21494;-67
2022/07/03 02:03:33;;;;;;;16.32;14.63;;;;;;;23.69;76.81;99424.34;1775391;79;21266;-66
2022/07/03 02:06:26;;;;;;;15.23;13.88;;;;;;;23.75;76.79;99422.50;1795889;79;21008;-67
2022/07/03 02:09:03;;;;;;;17.37;15.68;;;;;;;23.72;76.80;99416.22;1788259;79;20919;-67
2022/07/03 02:11:43;;;;;;;21.02;16.05;;;;;;;23.71;77.03;99414.03;1802518;79;20840;-67
2022/07/03 02:14:19;;;;;;;18.87;15.35;;;;;;;23.72;77.28;99416.22;1791214;79;20902;-68
2022/07/03 02:16:59;;;;;;;17.50;15.83;;;;;;;23.76;77.42;99421.41;1792926;79;21235;-68
2022/07/03 02:19:55;;;;;;;21.12;17.02;;;;;;;23.76;77.31;99414.61;1761631;79;20917;-67
2022/07/03 02:22:43;;;;;;;18.67;15.70;;;;;;;23.71;77.29;99411.31;1742846;82;21491;-66
2022/07/03 02:25:19;;;;;;;16.07;14.53;;;;;;;23.70;77.61;99410.23;1721662;83;20853;-66
2022/07/03 02:28:16;;;;;;;16.45;13.88;;;;;;;23.76;77.59;99410.53;1717680;83;21422;-67
2022/07/03 02:30:44;;;;;;;18.57;13.15;;;;;;;23.81;77.24;99411.94;1762221;81;21156;-68
2022/07/03 02:33:11;;;;;;;13.50;12.10;;;;;;;23.83;76.95;99404.34;1745665;82;20840;-66
2022/07/03 02:35:37;;;;;;;17.17;13.22;;;;;;;23.83;76.86;99416.56;1740388;82;20915;-66
2022/07/03 02:38:11;;;;;;;14.80;12.05;;;;;;;23.86;76.81;99418.78;1700341;83;21100;-67
2022/07/03 02:40:45;;;;;;;12.15;11.05;;;;;;;23.90;76.54;99423.98;1737746;82;20998;-67
2022/07/03 02:43:44;;;;;;;11.83;10.88;;;;;;;23.94;76.19;99431.89;1746140;82;21256;-68
2022/07/03 02:49:48;;;;;;;11.50;10.13;;;;;;;23.96;75.84;99429.20;1707480;82;20898;-69
2022/07/03 02:52:43;;;;;;;10.18;9.30;;;;;;;23.96;75.67;99425.12;1745604;81;20927;-66
2022/07/03 02:55:43;;;;;;;9.68;8.75;;;;;;;23.94;75.56;99420.50;1737110;82;20941;-66
2022/07/03 02:58:42;;;;;;;10.38;9.45;;;;;;;23.95;75.51;99424.03;1722803;82;21122;-66
2022/07/03 03:01:20;;;;;;;10.10;9.10;;;;;;;23.97;75.36;99424.59;1783864;79;20962;-68
2022/07/03 03:04:09;;;;;;;10.70;9.60;;;;;;;23.98;75.23;99417.53;1774146;79;20915;-66
2022/07/03 03:06:36;;;;;;;8.43;7.83;;;;;;;24.03;75.01;99422.73;1798123;79;21528;-67
2022/07/03 03:09:04;;;;;;;9.13;8.28;;;;;;;24.02;74.70;99421.91;1786525;79;20876;-67
2022/07/03 03:11:44;;;;;;;8.53;7.83;;;;;;;24.03;74.49;99424.09;1788533;79;21765;-68
2022/07/03 03:14:13;;;;;;;8.50;7.72;;;;;;;24.06;74.33;99427.13;1799525;79;20876;-67
2022/07/03 03:16:44;;;;;;;9.08;8.35;;;;;;;24.09;74.15;99422.55;1795414;79;20953;-67
2022/07/03 03:19:12;;;;;;;8.85;7.10;;;;;;;24.13;73.96;99429.11;1784720;79;20935;-69
2022/07/03 03:21:47;;;;;;;9.18;7.08;;;;;;;24.16;73.77;99425.88;1801313;79;20983;-67
2022/07/03 03:24:13;;;;;;;6.77;5.83;;;;;;;24.18;73.57;99422.89;1783841;79;21279;-67
2022/07/03 03:26:40;;;;;;;6.20;5.80;;;;;;;24.15;73.20;99422.88;1802600;79;20962;-68
2022/07/03 03:29:06;;;;;;;6.37;4.47;;;;;;;24.06;72.76;99420.88;1783582;79;20991;-66
2022/07/03 03:31:33;;;;;;;4.53;4.17;;;;;;;23.97;72.52;99424.59;1798104;79;20872;-68
2022/07/03 03:34:00;;;;;;;4.83;4.42;;;;;;;23.90;72.31;99422.63;1802672;79;20832;-67
2022/07/03 03:36:26;;;;;;;3.50;3.22;;;;;;;23.84;72.20;99427.20;1787057;79;21198;-68
2022/07/03 03:38:53;;;;;;;3.27;3.08;;;;;;;23.79;72.01;99423.61;1787159;79;20975;-67
2022/07/03 03:41:19;;;;;;;3.20;3.00;;;;;;;23.73;71.85;99430.06;1785802;79;21547;-68
2022/07/03 03:43:46;;;;;;;3.22;2.90;;;;;;;23.69;71.72;99428.95;1802622;79;21444;-67
2022/07/03 03:46:14;;;;;;;3.62;3.33;;;;;;;23.64;71.75;99429.72;1783103;79;20906;-67
2022/07/03 03:48:41;;;;;;;3.35;2.90;;;;;;;23.63;71.53;99436.22;1784251;79;21231;-67
2022/07/03 03:51:08;;;;;;;3.22;2.95;;;;;;;23.61;71.45;99438.91;1782232;79;21057;-68
2022/07/03 03:53:35;;;;;;;3.12;2.83;;;;;;;23.55;71.42;99435.31;1802740;79;21571;-68
2022/07/03 03:56:09;;;;;;;2.98;2.77;;;;;;;23.50;71.50;99435.79;1787814;79;20915;-67
2022/07/03 03:58:38;;;;;;;2.90;2.70;;;;;;;23.46;71.60;99437.39;1788846;79;21393;-67
2022/07/03 04:01:06;;;;;;;3.10;2.85;;;;;;;23.48;71.83;99437.95;1795597;79;21153;-67
2022/07/03 04:03:33;;;;;;;4.87;3.00;;;;;;;23.51;71.64;99438.27;1802519;79;21448;-68
2022/07/03 04:06:00;;;;;;;3.05;2.85;;;;;;;23.54;71.53;99440.48;1802818;79;21421;-68
2022/07/03 04:08:26;;;;;;;3.75;2.70;;;;;;;23.54;71.41;99444.55;1802504;79;21547;-68
2022/07/03 04:10:53;;;;;;;3.12;2.80;;;;;;;23.58;71.36;99446.20;1782895;79;21504;-68
2022/07/03 04:13:20;;;;;;;3.83;3.37;;;;;;;23.64;71.29;99451.45;1783664;79;21933;-68
2022/07/03 04:15:48;;;;;;;4.10;3.10;;;;;;;23.69;70.99;99452.85;1802547;79;21483;-67
2022/07/03 04:18:15;;;;;;;3.37;3.08;;;;;;;23.67;70.82;99440.61;1786216;79;20962;-67
2022/07/03 04:20:42;;;;;;;3.52;3.22;;;;;;;23.68;70.79;99451.73;1783819;79;20923;-68
2022/07/03 04:23:08;;;;;;;3.70;3.10;;;;;;;23.70;70.76;99444.17;1799625;79;20908;-67
2022/07/03 04:25:35;;;;;;;5.00;3.20;;;;;;;23.74;70.70;99443.93;1799531;79;21520;-67
2022/07/03 04:28:02;;;;;;;3.37;3.08;;;;;;;23.76;70.30;99445.84;1799444;79;20908;-67
2022/07/03 04:30:29;;;;;;;3.87;3.27;;;;;;;23.70;70.13;99446.33;1774804;79;20987;-68
2022/07/03 04:32:56;;;;;;;3.55;2.70;;;;;;;23.67;70.24;99440.61;1770008;80;21542;-67
2022/07/03 04:35:22;;;;;;;2.92;2.65;;;;;;;23.68;70.06;99445.77;1782983;79;20987;-68
2022/07/03 04:37:49;;;;;;;5.72;3.22;;;;;;;23.69;70.06;99444.70;1790585;79;21837;-67
2022/07/03 04:40:15;;;;;;;6.28;3.10;;;;;;;23.72;70.03;99442.84;1769468;79;21527;-67
2022/07/03 04:42:42;;;;;;;3.10;2.90;;;;;;;23.75;69.73;99453.17;1782053;79;20966;-67
2022/07/03 04:45:09;;;;;;;3.08;2.87;;;;;;;23.76;69.59;99445.84;1764960;80;20961;-67
2022/07/03 04:47:35;;;;;;;3.45;2.90;;;;;;;23.74;69.65;99443.93;1777554;79;20951;-67
2022/07/03 04:50:03;;;;;;;5.92;2.30;;;;;;;23.75;69.51;99440.15;1783801;79;21227;-68
2022/07/03 04:52:29;;;;;;;2.90;2.70;;;;;;;23.73;69.30;99439.56;1778525;79;20896;-67
2022/07/03 04:54:56;;;;;;;3.27;2.85;;;;;;;23.70;69.27;99438.18;1787970;79;20981;-67
2022/07/03 04:57:23;;;;;;;4.97;2.30;;;;;;;23.87;69.32;99440.27;1788787;79;21041;-68
2022/07/03 04:59:49;;;;;;;3.20;2.77;;;;;;;24.16;68.75;99431.32;1793402;79;21460;-67
2022/07/03 05:02:16;;;;;;;3.52;2.80;;;;;;;24.39;67.90;99428.23;1778170;79;21134;-67
2022/07/03 05:04:42;;;;;;;3.10;2.80;;;;;;;24.51;66.98;99436.18;1776402;79;20990;-67
2022/07/03 05:07:10;;;;;;;2.77;2.60;;;;;;;24.57;66.73;99437.87;1799747;79;21408;-66
2022/07/03 05:09:37;;;;;;;2.92;2.55;;;;;;;24.83;66.13;99434.78;1799663;79;21492;-67
2022/07/03 05:12:05;;;;;;;2.98;2.67;;;;;;;25.12;65.40;99425.97;1799811;79;21380;-67
2022/07/03 05:14:32;;;;;;;3.00;2.40;;;;;;;25.67;64.55;99432.16;1782751;79;21112;-68
2022/07/03 05:16:59;;;;;;;3.10;2.90;;;;;;;26.23;62.63;99429.49;1788476;79;20972;-67
2022/07/03 05:19:25;;;;;;;3.85;2.92;;;;;;;26.51;61.41;99427.59;1780007;79;21065;-67
2022/07/03 05:21:51;;;;;;;3.45;3.15;;;;;;;26.69;60.49;99422.91;1769551;79;21049;-67
2022/07/03 05:24:18;;;;;;;4.00;3.17;;;;;;;26.81;59.91;99430.27;1793259;79;20986;-68
2022/07/03 05:26:45;;;;;;;3.35;3.05;;;;;;;27.06;59.18;99431.30;1794933;79;21224;-66
2022/07/03 05:29:12;;;;;;;3.10;2.90;;;;;;;27.34;58.06;99421.89;1782435;79;20970;-67
2022/07/03 05:31:38;;;;;;;2.75;2.55;;;;;;;28.20;56.42;99419.18;1777815;79;20920;-66
2022/07/03 05:34:05;;;;;;;3.17;2.98;;;;;;;29.28;53.59;99414.77;1779635;79;20914;-66
2022/07/03 05:36:31;;;;;;;3.70;3.20;;;;;;;29.81;51.79;99416.80;1773324;79;20871;-67
2022/07/03 05:39:40;;;;;;;3.12;2.90;;;;;;;30.37;50.15;99410.44;1799764;79;21126;-68
2022/07/03 05:41:29;;;;;;;3.42;3.20;;;;;;;31.10;48.26;99409.06;1755967;79;20918;-67
2022/07/03 05:43:57;;;;;;;3.35;3.08;;;;;;;31.86;46.14;99410.15;1772994;79;21001;-67
2022/07/03 05:46:24;;;;;;;3.42;3.12;;;;;;;32.42;44.70;99409.59;1780257;79;20983;-66
2022/07/03 05:48:51;;;;;;;3.85;3.10;;;;;;;32.65;43.63;99412.56;1799697;79;20998;-66
2022/07/03 05:51:17;;;;;;;3.75;3.02;;;;;;;32.53;43.38;99407.67;1799719;79;21231;-67
2022/07/03 05:53:43;;;;;;;5.30;3.17;;;;;;;32.51;43.02;99414.03;1790600;79;20914;-66
2022/07/03 05:56:10;;;;;;;4.22;3.22;;;;;;;32.70;42.49;99411.05;1776273;79;20836;-67
2022/07/03 05:58:36;;;;;;;3.37;3.08;;;;;;;32.71;42.41;99406.63;1783649;79;20925;-67
2022/07/03 06:01:04;;;;;;;3.95;3.58;;;;;;;33.52;41.58;99400.16;1773527;79;21423;-66
2022/07/03 06:03:32;;;;;;;3.52;3.25;;;;;;;34.40;39.48;99402.00;1777365;79;21123;-67
2022/07/03 06:05:59;;;;;;;3.77;3.37;;;;;;;34.75;38.23;99403.56;1781161;79;20932;-68
2022/07/03 06:08:27;;;;;;;4.58;3.65;;;;;;;35.30;37.46;99397.34;1759776;79;21482;-66
2022/07/03 06:10:53;;;;;;;3.77;3.42;;;;;;;35.90;36.22;99394.75;1781448;79;21492;-67
2022/07/03 06:13:20;;;;;;;3.72;3.47;;;;;;;36.81;34.88;99397.25;1791429;79;21596;-68
2022/07/03 06:15:47;;;;;;;4.72;4.40;;;;;;;37.87;32.79;99383.98;1786347;79;21196;-70
2022/07/03 06:18:16;;;;;;;6.37;5.87;;;;;;;38.62;31.57;99384.88;1766452;79;20925;-67
2022/07/03 06:20:43;;;;;;;10.35;9.38;;;;;;;39.28;30.15;99383.58;1762015;79;20885;-66
2022/07/03 06:23:09;;;;;;;8.53;7.40;;;;;;;38.97;30.29;99393.33;1775512;79;20954;-67
2022/07/03 06:25:36;;;;;;;8.60;7.90;;;;;;;38.33;30.89;99392.84;1781100;79;21082;-66
2022/07/03 06:28:02;;;;;;;10.50;8.90;;;;;;;37.91;31.46;99402.92;1794749;79;21124;-68
2022/07/03 06:30:29;;;;;;;8.73;7.97;;;;;;;37.63;31.27;99402.06;1784503;79;20954;-67
2022/07/03 06:32:55;;;;;;;9.08;8.23;;;;;;;36.97;32.06;99408.48;1778902;79;20979;-67
2022/07/03 06:35:22;;;;;;;9.88;8.78;;;;;;;36.73;32.76;99409.81;1790292;79;20978;-67
2022/07/03 06:37:49;;;;;;;10.88;9.68;;;;;;;36.30;33.46;99413.84;1775965;79;20926;-66
2022/07/03 06:40:16;;;;;;;11.70;10.70;;;;;;;35.61;34.18;99418.34;1777237;79;21224;-66
2022/07/03 06:42:43;;;;;;;13.03;10.98;;;;;;;34.77;35.37;99416.47;1745035;82;20935;-67
2022/07/03 06:45:10;;;;;;;15.15;13.60;;;;;;;34.00;36.67;99420.70;1714756;83;20915;-68
2022/07/03 06:47:38;;;;;;;13.48;12.07;;;;;;;33.25;38.04;99425.22;1744661;81;21468;-71
2022/07/03 06:50:07;;;;;;;14.20;12.45;;;;;;;32.63;39.37;99434.93;1727669;82;21014;-70
2022/07/03 06:52:34;;;;;;;15.58;11.88;;;;;;;32.14;40.33;99435.08;1732898;82;21285;-69
2022/07/03 06:55:01;;;;;;;14.35;13.00;;;;;;;31.75;41.23;99431.02;1740521;81;21033;-70
2022/07/03 06:57:27;;;;;;;12.75;11.20;;;;;;;31.49;41.90;99427.21;1700140;83;21086;-69
2022/07/03 06:59:54;;;;;;;10.38;9.40;;;;;;;31.18;42.56;99428.13;1744660;82;20997;-70
2022/07/03 07:02:20;;;;;;;13.78;9.88;;;;;;;30.89;43.03;99425.66;1719963;83;20982;-69
2022/07/03 07:04:46;;;;;;;13.03;11.73;;;;;;;30.60;43.58;99426.48;1737256;82;21273;-68
2022/07/03 07:07:13;;;;;;;13.40;12.07;;;;;;;30.31;44.20;99427.51;1744836;82;21538;-70
2022/07/03 07:09:40;;;;;;;12.88;10.98;;;;;;;30.25;44.75;99417.73;1728807;82;20919;-68
2022/07/03 07:12:08;;;;;;;12.63;9.98;;;;;;;30.23;45.05;99424.08;1731824;82;20939;-70
2022/07/03 07:14:35;;;;;;;9.08;8.28;;;;;;;30.35;45.13;99417.58;1700723;83;21540;-67
2022/07/03 07:17:01;;;;;;;9.85;8.95;;;;;;;30.44;44.91;99424.02;1704477;83;22145;-68
2022/07/03 07:19:28;;;;;;;7.62;7.03;;;;;;;30.23;45.10;99426.82;1750463;80;21494;-69
2022/07/03 07:21:55;;;;;;;6.67;6.08;;;;;;;29.86;45.81;99425.49;1786042;79;21455;-68
2022/07/03 07:24:22;;;;;;;6.08;5.67;;;;;;;29.50;46.65;99423.80;1787523;79;21578;-68
2022/07/03 07:26:48;;;;;;;6.12;5.62;;;;;;;29.29;47.48;99417.78;1798472;79;21595;-68
2022/07/03 07:29:14;;;;;;;6.80;5.78;;;;;;;29.28;47.55;99420.80;1761489;79;21748;-68
2022/07/03 07:31:42;;;;;;;5.60;5.08;;;;;;;29.19;47.68;99427.47;1785478;79;38598;-68
2022/07/03 07:34:10;;;;;;;4.95;4.58;;;;;;;29.20;47.76;99427.75;1781027;79;21507;-68
2022/07/03 07:36:36;;;;;;;4.30;4.00;;;;;;;29.07;47.77;99421.58;1799101;79;21384;-68
2022/07/03 07:39:04;;;;;;;5.05;3.80;;;;;;;28.93;48.17;99427.52;1794174;79;21614;-66
2022/07/03 07:41:31;;;;;;;3.40;3.20;;;;;;;28.74;48.62;99423.33;1780493;79;21125;-68
2022/07/03 07:43:58;;;;;;;4.40;4.00;;;;;;;28.51;49.27;99423.27;1799114;79;20919;-68
2022/07/03 07:46:25;;;;;;;3.92;3.62;;;;;;;28.35;49.53;99427.25;1768938;79;21066;-67
2022/07/03 07:48:51;;;;;;;6.72;4.40;;;;;;;28.16;50.00;99428.50;1776595;79;21034;-69
2022/07/03 07:51:18;;;;;;;4.47;4.08;;;;;;;28.00;50.49;99426.41;1785049;79;20993;-69
2022/07/03 07:53:44;;;;;;;5.85;5.37;;;;;;;27.71;51.42;99421.44;1795433;79;21242;-69
2022/07/03 07:56:11;;;;;;;5.35;4.05;;;;;;;27.45;52.40;99423.48;1767523;79;21016;-67
2022/07/03 07:58:37;;;;;;;4.33;3.92;;;;;;;27.20;53.30;99427.67;1791635;79;21045;-69
2022/07/03 08:06:34;;;;;;;4.28;3.92;;;;;;;26.79;54.95;99427.55;1796705;79;21765;-66
2022/07/03 08:09:00;;;;;;;4.35;3.90;;;;;;;26.71;55.37;99434.36;1791891;79;21416;-67
2022/07/03 08:11:27;;;;;;;4.45;4.15;;;;;;;26.70;55.52;99429.98;1782011;79;20891;-69
2022/07/03 08:13:56;;;;;;;4.37;4.08;;;;;;;26.64;55.65;99431.11;1768132;79;21021;-69
2022/07/03 08:16:22;;;;;;;4.25;3.95;;;;;;;26.61;55.92;99426.74;1790399;79;20978;-68
2022/07/03 08:18:49;;;;;;;5.33;4.83;;;;;;;26.60;56.04;99431.38;1796691;79;21201;-68
2022/07/03 08:21:15;;;;;;;4.85;4.45;;;;;;;26.52;56.32;99429.20;1773360;79;20923;-70
2022/07/03 08:23:42;;;;;;;4.42;4.03;;;;;;;26.54;56.61;99431.10;1779476;79;20888;-61
2022/07/03 08:26:08;;;;;;;4.58;4.12;;;;;;;26.70;56.71;99434.63;1779820;80;20962;-61
2022/07/03 08:28:35;;;;;;;4.72;4.30;;;;;;;26.94;57.09;99429.69;1777591;80;21590;-63
2022/07/03 08:31:01;;;;;;;4.72;3.62;;;;;;;27.19;56.31;99436.98;1781421;80;22071;-65
2022/07/03 08:33:28;;;;;;;4.78;4.30;;;;;;;27.35;56.00;99428.17;1781562;80;20959;-64
2022/07/03 08:35:55;;;;;;;4.10;3.77;;;;;;;27.45;55.53;99429.52;1792237;80;20907;-61
2022/07/03 08:38:31;;;;;;;4.58;4.20;;;;;;;27.56;55.09;99434.63;1789205;80;21031;-64
2022/07/03 08:40:59;;;;;;;4.53;4.12;;;;;;;27.79;54.69;99429.59;1790257;80;20970;-63
2022/07/03 08:43:26;;;;;;;5.75;4.62;;;;;;;28.00;53.96;99429.71;1786418;80;21305;-67
2022/07/03 08:45:54;;;;;;;4.12;3.77;;;;;;;28.22;53.33;99431.47;1792811;80;20887;-60
2022/07/03 08:48:22;;;;;;;4.22;3.77;;;;;;;28.29;52.77;99429.20;1778172;80;21331;-64
2022/07/03 08:50:50;;;;;;;5.20;4.50;;;;;;;28.23;52.64;99438.58;1778972;80;21046;-61
2022/07/03 08:53:17;;;;;;;4.50;4.20;;;;;;;28.29;52.75;99431.15;1794925;80;20931;-59
2022/07/03 08:55:44;;;;;;;4.30;4.00;;;;;;;28.55;52.25;99429.81;1794958;79;21295;-63
2022/07/03 08:58:12;;;;;;;3.77;3.58;;;;;;;28.76;51.76;99431.24;1781021;80;21555;-68
2022/07/03 09:00:39;;;;;;;4.15;3.85;;;;;;;28.89;51.54;99437.39;1762822;80;20868;-63
2022/07/03 09:03:11;;;;;;;4.97;4.22;;;;;;;28.93;51.37;99431.62;1783560;80;21017;-67
2022/07/03 09:05:38;;;;;;;4.40;4.00;;;;;;;28.95;51.36;99434.05;1751453;80;20931;-67
2022/07/03 09:08:09;;;;;;;4.92;4.20;;;;;;;28.95;50.93;99436.79;1793206;80;21044;-67
2022/07/03 09:10:35;;;;;;;4.80;4.40;;;;;;;28.91;50.93;99437.95;1788212;80;20931;-64
2022/07/03 09:13:02;;;;;;;5.08;4.67;;;;;;;28.82;50.87;99440.22;1794874;80;21021;-67
2022/07/03 09:15:29;;;;;;;4.72;4.33;;;;;;;28.76;51.07;99441.64;1785031;79;20995;-67
2022/07/03 09:17:59;;;;;;;5.90;4.85;;;;;;;28.75;51.12;99444.14;1790662;80;21017;-64
2022/07/03 09:20:37;;;;;;;7.15;4.78;;;;;;;28.60;51.26;99448.34;1785431;80;21126;-64
2022/07/03 09:23:16;;;;;;;5.85;5.10;;;;;;;28.41;51.55;99458.39;1780776;80;20895;-63
2022/07/03 09:26:02;;;;;;;5.53;4.72;;;;;;;28.29;51.86;99454.40;1790532;80;20908;-65
2022/07/03 09:28:52;;;;;;;5.33;4.92;;;;;;;28.11;52.30;99448.50;1788081;80;20994;-67
2022/07/03 09:31:27;;;;;;;4.90;4.50;;;;;;;27.92;52.88;99456.28;1778272;80;21025;-66
2022/07/03 09:34:03;;;;;;;5.15;4.37;;;;;;;27.83;52.88;99453.88;1788995;80;21376;-63
2022/07/03 09:36:48;;;;;;;4.65;4.25;;;;;;;27.66;52.80;99450.17;1788984;79;20903;-63
2022/07/03 09:39:28;;;;;;;5.40;5.00;;;;;;;27.63;53.20;99447.17;1793220;80;20871;-63
2022/07/03 09:42:04;;;;;;;8.70;8.00;;;;;;;27.61;53.05;99450.17;1778822;80;21467;-64
2022/07/03 09:44:45;;;;;;;5.33;4.83;;;;;;;27.56;53.68;99450.20;1783642;79;20947;-62
2022/07/03 09:47:18;;;;;;;5.10;4.70;;;;;;;27.62;53.77;99449.08;1795060;80;22022;-66
2022/07/03 09:50:04;;;;;;;4.95;4.53;;;;;;;27.63;54.02;99442.53;1785615;79;21010;-69
2022/07/03 09:52:45;;;;;;;4.33;3.97;;;;;;;27.78;53.82;99447.89;1785099;80;20971;-63
2022/07/03 09:55:18;;;;;;;5.00;4.53;;;;;;;27.85;53.79;99444.83;1790303;80;21496;-63
2022/07/03 09:57:56;;;;;;;5.40;4.45;;;;;;;27.93;53.65;99446.97;1782429;80;21058;-64
2022/07/03 10:00:26;;;;;;;5.87;5.10;;;;;;;27.91;53.65;99450.54;1777193;80;21745;-63
2022/07/03 10:03:03;;;;;;;5.08;4.70;;;;;;;27.90;53.43;99446.98;1792478;80;21067;-63
2022/07/03 10:05:39;;;;;;;4.83;4.53;;;;;;;27.86;53.40;99453.31;1787167;79;21023;-63
2022/07/03 10:08:08;;;;;;;5.45;5.05;;;;;;;27.90;53.72;99447.53;1778269;80;21049;-64
2022/07/03 10:10:38;;;;;;;7.58;4.37;;;;;;;27.95;53.24;99446.95;1783858;80;21480;-64
2022/07/03 10:13:05;;;;;;;4.85;4.45;;;;;;;28.02;53.14;99444.77;1783372;80;21110;-64
2022/07/03 10:15:36;;;;;;;4.50;4.20;;;;;;;28.21;52.91;99442.70;1781218;80;21562;-63
2022/07/03 10:18:05;;;;;;;4.55;4.25;;;;;;;28.44;52.46;99446.05;1788346;80;20880;-63
2022/07/03 10:20:41;;;;;;;5.58;5.08;;;;;;;28.53;51.89;99439.66;1782052;79;21007;-65
2022/07/03 10:23:08;;;;;;;6.33;5.22;;;;;;;28.62;51.76;99437.16;1801277;79;20995;-67
2022/07/03 10:25:35;;;;;;;5.33;4.92;;;;;;;28.76;51.39;99441.64;1798878;79;21224;-64
2022/07/03 10:28:03;;;;;;;6.00;5.45;;;;;;;28.89;50.73;99436.61;1801987;79;20927;-65
2022/07/03 10:30:29;;;;;;;6.50;5.90;;;;;;;28.96;50.06;99434.33;1792055;79;20967;-63
2022/07/03 10:32:56;;;;;;;18.17;16.77;;;;;;;28.95;49.62;99438.98;1783024;79;21001;-63
2022/07/03 10:35:32;;;;;;;11.48;10.48;;;;;;;28.93;49.87;99431.62;1743784;81;20974;-63
2022/07/03 10:38:14;;;;;;;6.90;6.40;;;;;;;28.99;50.04;99435.12;1791847;79;21125;-67
2022/07/03 10:46:37;;;;;;;8.13;7.28;;;;;;;29.11;49.31;99430.86;1787116;79;21036;-64
2022/07/03 10:49:10;;;;;;;7.33;6.72;;;;;;;29.05;49.47;99433.38;1792876;79;20971;-63
2022/07/03 10:51:55;;;;;;;7.92;6.22;;;;;;;29.10;49.79;99433.32;1782390;79;21220;-64
2022/07/03 10:54:26;;;;;;;10.15;9.20;;;;;;;29.20;49.83;99433.22;1787297;79;20904;-65
2022/07/03 10:57:04;;;;;;;9.88;8.98;;;;;;;29.30;50.00;99433.67;1720344;82;20995;-63
2022/07/03 10:59:44;;;;;;;5.78;5.37;;;;;;;29.36;49.42;99426.45;1740600;82;20948;-65
2022/07/03 11:02:34;;;;;;;5.40;5.00;;;;;;;29.30;49.02;99432.30;1717716;82;21097;-62
2022/07/03 11:05:12;;;;;;;5.00;4.28;;;;;;;29.21;48.95;99427.20;1725457;82;21259;-63
2022/07/03 11:07:54;;;;;;;4.62;4.22;;;;;;;29.10;48.84;99430.58;1739044;81;20935;-63
2022/07/03 11:10:26;;;;;;;4.08;3.80;;;;;;;29.17;49.08;99429.70;1750708;81;21042;-63
2022/07/03 11:13:17;;;;;;;4.78;4.37;;;;;;;29.26;48.59;99430.69;1794299;79;20888;-63
2022/07/03 11:15:53;;;;;;;7.85;7.20;;;;;;;29.25;48.77;99426.31;1794304;79;20848;-71
2022/07/03 11:18:33;;;;;;;7.62;6.92;;;;;;;29.38;48.76;99422.06;1781939;79;21153;-66
2022/07/03 11:21:17;;;;;;;6.78;5.85;;;;;;;29.46;48.29;99429.63;1789871;79;21055;-65
2022/07/03 11:24:08;;;;;;;5.72;5.22;;;;;;;29.38;48.40;99430.28;1786027;79;20957;-65
2022/07/03 11:26:35;;;;;;;5.58;5.12;;;;;;;29.37;48.42;99427.27;1801173;79;21002;-65
2022/07/03 11:29:02;;;;;;;6.03;5.55;;;;;;;29.34;48.33;99436.06;1800630;79;21028;-67
2022/07/03 11:31:28;;;;;;;5.47;4.83;;;;;;;29.25;48.52;99435.11;1780514;80;21243;-65
2022/07/03 11:33:58;;;;;;;4.62;4.20;;;;;;;29.09;48.87;99430.34;1796051;79;20888;-64
2022/07/03 11:36:32;;;;;;;4.70;4.40;;;;;;;28.94;49.18;99437.91;1802664;79;21461;-63
2022/07/03 11:39:04;;;;;;;5.83;5.28;;;;;;;28.76;49.59;99433.43;1802643;79;20888;-62
2022/07/03 11:41:40;;;;;;;5.20;4.80;;;;;;;28.63;49.92;99435.48;1792010;79;20979;-64
2022/07/03 11:44:09;;;;;;;5.42;5.03;;;;;;;28.47;50.68;99438.64;1802793;79;22079;-64
2022/07/03 11:46:38;;;;;;;5.53;5.22;;;;;;;28.39;51.09;99440.08;1802292;79;20939;-65
2022/07/03 11:49:14;;;;;;;5.70;5.30;;;;;;;28.29;51.34;99444.25;1802342;79;21472;-65
2022/07/03 11:51:56;;;;;;;6.20;5.20;;;;;;;28.26;51.77;99439.92;1790910;79;21113;-65
2022/07/03 11:54:23;;;;;;;6.30;5.78;;;;;;;28.27;52.08;99438.80;1789443;79;20965;-66
2022/07/03 11:56:49;;;;;;;5.80;5.40;;;;;;;28.27;52.08;99434.70;1802347;79;21294;-63
2022/07/03 11:59:16;;;;;;;6.70;6.03;;;;;;;28.19;52.29;99438.87;1788909;79;20966;-66
2022/07/03 12:01:43;;;;;;;6.28;5.72;;;;;;;28.06;52.69;99437.61;1785516;79;20958;-66